sensor_id;sensor_type;location;lat;lon;timestamp;pressure;altitude;pressure_sealevel;temperature;humidity
47366;BME280;33105;47.964;7.982;2023-04-07T00:02:44;96675.63;;;7.54;62.54
47366;BME280;33105;47.964;7.982;2023-04-07T00:05:48;96672.66;;;7.55;62.59
47366;BME280;33105;47.964;7.982;2023-04-07T00:08:51;96675.47;;;7.60;63.33
47366;BME280;33105;47.964;7.982;2023-04-07T00:11:53;96666.34;;;7.66;62.83
47366;BME280;33105;47.964;7.982;2023-04-07T00:14:54;96670.19;;;7.54;63.55
47366;BME280;33105;47.964;7.982;2023-04-07T00:17:57;96657.78;;;7.29;64.00
47366;BME280;33105;47.964;7.982;2023-04-07T00:20:59;96662.53;;;7.22;64.42
47366;BME280;33105;47.964;7.982;2023-04-07T00:24:01;96658.63;;;7.46;63.38
47366;BME280;33105;47.964;7.982;2023-04-07T00:27:04;96653.63;;;7.38;63.96
47366;BME280;33105;47.964;7.982;2023-04-07T00:30:06;96656.22;;;7.33;63.68
47366;BME280;33105;47.964;7.982;2023-04-07T00:33:09;96659.09;;;7.27;64.03
47366;BME280;33105;47.964;7.982;2023-04-07T00:36:10;96656.81;;;7.35;64.56
47366;BME280;33105;47.964;7.982;2023-04-07T00:39:12;96642.75;;;7.38;64.79
47366;BME280;33105;47.964;7.982;2023-04-07T00:42:14;96647.25;;;7.33;64.68
47366;BME280;33105;47.964;7.982;2023-04-07T00:45:15;96640.41;;;7.30;65.20
47366;BME280;33105;47.964;7.982;2023-04-07T00:48:17;96634.66;;;7.43;65.36
47366;BME280;33105;47.964;7.982;2023-04-07T00:51:25;96637.38;;;7.43;64.96
47366;BME280;33105;47.964;7.982;2023-04-07T00:54:29;96624.94;;;7.47;65.57
47366;BME280;33105;47.964;7.982;2023-04-07T00:57:30;96622.13;;;7.42;64.47
47366;BME280;33105;47.964;7.982;2023-04-07T01:00:35;96617.13;;;7.51;64.02
47366;BME280;33105;47.964;7.982;2023-04-07T01:03:45;96625.84;;;7.36;64.92
47366;BME280;33105;47.964;7.982;2023-04-07T01:06:50;96618.56;;;7.25;65.03
47366;BME280;33105;47.964;7.982;2023-04-07T01:10:04;96612.22;;;7.20;65.44
47366;BME280;33105;47.964;7.982;2023-04-07T01:13:23;96613.72;;;7.27;65.24
47366;BME280;33105;47.964;7.982;2023-04-07T01:16:43;96608.13;;;7.17;65.82
47366;BME280;33105;47.964;7.982;2023-04-07T01:19:54;96620.94;;;7.22;66.05
47366;BME280;33105;47.964;7.982;2023-04-07T01:23:04;96608.41;;;7.04;66.40
47366;BME280;33105;47.964;7.982;2023-04-07T01:26:16;96606.28;;;7.06;66.71
47366;BME280;33105;47.964;7.982;2023-04-07T01:29:26;96606.53;;;7.04;67.90
47366;BME280;33105;47.964;7.982;2023-04-07T01:32:29;96616.94;;;6.96;67.53
47366;BME280;33105;47.964;7.982;2023-04-07T01:35:36;96613.50;;;7.00;66.89
47366;BME280;33105;47.964;7.982;2023-04-07T01:38:41;96605.59;;;6.99;67.30
47366;BME280;33105;47.964;7.982;2023-04-07T01:41:44;96596.25;;;7.23;66.07
47366;BME280;33105;47.964;7.982;2023-04-07T01:44:47;96589.47;;;6.92;66.66
47366;BME280;33105;47.964;7.982;2023-04-07T01:47:50;96591.44;;;6.97;66.68
47366;BME280;33105;47.964;7.982;2023-04-07T01:50:54;96584.19;;;7.02;66.28
47366;BME280;33105;47.964;7.982;2023-04-07T01:53:58;96588.47;;;6.98;65.83
47366;BME280;33105;47.964;7.982;2023-04-07T01:57:00;96588.00;;;7.01;65.67
47366;BME280;33105;47.964;7.982;2023-04-07T02:00:03;96586.78;;;6.80;66.56
47366;BME280;33105;47.964;7.982;2023-04-07T02:03:19;96576.75;;;6.81;67.28
47366;BME280;33105;47.964;7.982;2023-04-07T02:06:28;96578.53;;;6.75;68.08
47366;BME280;33105;47.964;7.982;2023-04-07T02:09:35;96565.31;;;6.79;67.69
47366;BME280;33105;47.964;7.982;2023-04-07T02:12:39;96550.69;;;6.97;67.30
47366;BME280;33105;47.964;7.982;2023-04-07T02:15:49;96542.84;;;6.83;67.12
47366;BME280;33105;47.964;7.982;2023-04-07T02:18:53;96543.13;;;6.70;66.50
47366;BME280;33105;47.964;7.982;2023-04-07T02:21:56;96535.00;;;6.70;66.73
47366;BME280;33105;47.964;7.982;2023-04-07T02:24:59;96542.31;;;6.70;67.06
47366;BME280;33105;47.964;7.982;2023-04-07T02:28:02;96531.63;;;6.63;67.88
47366;BME280;33105;47.964;7.982;2023-04-07T02:31:04;96531.88;;;6.62;67.88
47366;BME280;33105;47.964;7.982;2023-04-07T02:34:07;96523.88;;;7.00;66.60
47366;BME280;33105;47.964;7.982;2023-04-07T02:37:08;96512.59;;;6.92;66.80
47366;BME280;33105;47.964;7.982;2023-04-07T02:40:10;96512.97;;;6.67;67.97
47366;BME280;33105;47.964;7.982;2023-04-07T02:43:13;96511.34;;;6.54;68.02
47366;BME280;33105;47.964;7.982;2023-04-07T02:46:14;96518.13;;;6.68;68.09
47366;BME280;33105;47.964;7.982;2023-04-07T02:49:16;96517.81;;;6.65;68.53
47366;BME280;33105;47.964;7.982;2023-04-07T02:52:18;96521.94;;;6.67;69.29
47366;BME280;33105;47.964;7.982;2023-04-07T02:55:20;96526.22;;;6.52;68.93
47366;BME280;33105;47.964;7.982;2023-04-07T02:58:24;96518.81;;;6.47;69.31
47366;BME280;33105;47.964;7.982;2023-04-07T03:01:26;96522.91;;;6.61;68.79
47366;BME280;33105;47.964;7.982;2023-04-07T03:04:28;96517.03;;;6.53;68.55
47366;BME280;33105;47.964;7.982;2023-04-07T03:07:32;96528.97;;;6.68;67.63
47366;BME280;33105;47.964;7.982;2023-04-07T03:10:36;96530.63;;;6.69;67.48
47366;BME280;33105;47.964;7.982;2023-04-07T03:13:38;96520.91;;;6.57;67.17
47366;BME280;33105;47.964;7.982;2023-04-07T03:16:39;96514.56;;;6.51;67.75
47366;BME280;33105;47.964;7.982;2023-04-07T03:19:43;96514.09;;;6.71;66.14
47366;BME280;33105;47.964;7.982;2023-04-07T03:22:44;96514.44;;;6.46;67.50
47366;BME280;33105;47.964;7.982;2023-04-07T03:25:55;96517.84;;;6.53;66.80
47366;BME280;33105;47.964;7.982;2023-04-07T03:28:59;96527.84;;;6.64;66.47
47366;BME280;33105;47.964;7.982;2023-04-07T03:32:01;96528.84;;;6.46;67.20
47366;BME280;33105;47.964;7.982;2023-04-07T03:35:03;96525.13;;;6.36;68.21
47366;BME280;33105;47.964;7.982;2023-04-07T03:38:04;96515.13;;;6.25;68.85
47366;BME280;33105;47.964;7.982;2023-04-07T03:41:06;96511.03;;;6.10;68.70
47366;BME280;33105;47.964;7.982;2023-04-07T03:44:08;96493.13;;;5.86;69.79
47366;BME280;33105;47.964;7.982;2023-04-07T03:47:12;96502.09;;;5.98;69.81
47366;BME280;33105;47.964;7.982;2023-04-07T03:50:14;96501.03;;;5.88;70.63
47366;BME280;33105;47.964;7.982;2023-04-07T03:53:27;96513.28;;;5.78;71.50
47366;BME280;33105;47.964;7.982;2023-04-07T03:56:28;96506.09;;;5.84;71.91
47366;BME280;33105;47.964;7.982;2023-04-07T03:59:32;96501.88;;;5.76;71.86
47366;BME280;33105;47.964;7.982;2023-04-07T04:02:37;96496.06;;;5.96;71.54
47366;BME280;33105;47.964;7.982;2023-04-07T04:05:39;96495.66;;;6.28;69.78
47366;BME280;33105;47.964;7.982;2023-04-07T04:08:44;96487.72;;;6.38;68.85
47366;BME280;33105;47.964;7.982;2023-04-07T04:11:46;96475.44;;;6.64;68.46
47366;BME280;33105;47.964;7.982;2023-04-07T04:14:49;96483.25;;;6.60;67.73
47366;BME280;33105;47.964;7.982;2023-04-07T04:17:52;96483.88;;;6.51;68.38
47366;BME280;33105;47.964;7.982;2023-04-07T04:20:54;96477.00;;;6.60;67.34
47366;BME280;33105;47.964;7.982;2023-04-07T04:23:56;96466.47;;;6.63;66.99
47366;BME280;33105;47.964;7.982;2023-04-07T04:26:58;96470.53;;;6.21;69.59
47366;BME280;33105;47.964;7.982;2023-04-07T04:30:00;96462.31;;;6.44;68.55
47366;BME280;33105;47.964;7.982;2023-04-07T04:33:25;96468.81;;;6.43;67.90
47366;BME280;33105;47.964;7.982;2023-04-07T04:36:31;96460.84;;;6.53;67.21
47366;BME280;33105;47.964;7.982;2023-04-07T04:39:38;96460.38;;;6.56;67.41
47366;BME280;33105;47.964;7.982;2023-04-07T04:42:40;96458.34;;;6.35;67.70
47366;BME280;33105;47.964;7.982;2023-04-07T04:45:44;96453.78;;;6.52;66.98
47366;BME280;33105;47.964;7.982;2023-04-07T04:48:49;96457.31;;;6.24;67.98
47366;BME280;33105;47.964;7.982;2023-04-07T04:51:54;96451.66;;;6.54;66.92
47366;BME280;33105;47.964;7.982;2023-04-07T04:54:56;96446.84;;;6.44;67.40
47366;BME280;33105;47.964;7.982;2023-04-07T04:57:58;96460.00;;;6.36;67.74
47366;BME280;33105;47.964;7.982;2023-04-07T05:01:12;96456.38;;;6.30;67.47
47366;BME280;33105;47.964;7.982;2023-04-07T05:04:19;96457.91;;;6.55;66.65
47366;BME280;33105;47.964;7.982;2023-04-07T05:07:29;96466.22;;;6.08;68.70
47366;BME280;33105;47.964;7.982;2023-04-07T05:10:31;96464.59;;;6.35;67.97
47366;BME280;33105;47.964;7.982;2023-04-07T05:13:32;96463.53;;;6.36;68.52
47366;BME280;33105;47.964;7.982;2023-04-07T05:16:37;96467.84;;;6.49;67.91
47366;BME280;33105;47.964;7.982;2023-04-07T05:19:40;96458.84;;;6.32;68.87
47366;BME280;33105;47.964;7.982;2023-04-07T05:22:57;96470.75;;;6.31;68.44
47366;BME280;33105;47.964;7.982;2023-04-07T05:26:06;96460.81;;;6.65;66.61
47366;BME280;33105;47.964;7.982;2023-04-07T05:29:07;96471.38;;;6.49;68.12
47366;BME280;33105;47.964;7.982;2023-04-07T05:32:09;96470.72;;;6.42;68.51
47366;BME280;33105;47.964;7.982;2023-04-07T05:35:11;96457.88;;;6.38;68.79
47366;BME280;33105;47.964;7.982;2023-04-07T05:38:19;96474.28;;;6.31;69.50
47366;BME280;33105;47.964;7.982;2023-04-07T05:41:20;96470.03;;;6.35;69.00
47366;BME280;33105;47.964;7.982;2023-04-07T05:44:21;96461.31;;;6.33;68.46
47366;BME280;33105;47.964;7.982;2023-04-07T05:47:24;96459.66;;;6.77;67.27
47366;BME280;33105;47.964;7.982;2023-04-07T05:50:26;96464.25;;;6.60;68.04
47366;BME280;33105;47.964;7.982;2023-04-07T05:53:27;96465.53;;;6.41;69.23
47366;BME280;33105;47.964;7.982;2023-04-07T05:56:29;96462.47;;;6.37;69.48
47366;BME280;33105;47.964;7.982;2023-04-07T05:59:32;96460.63;;;6.26;69.88
47366;BME280;33105;47.964;7.982;2023-04-07T06:02:34;96456.56;;;6.40;69.42
47366;BME280;33105;47.964;7.982;2023-04-07T06:05:36;96456.13;;;6.77;67.18
47366;BME280;33105;47.964;7.982;2023-04-07T06:08:38;96456.28;;;6.70;68.21
47366;BME280;33105;47.964;7.982;2023-04-07T06:11:40;96447.66;;;6.45;69.23
47366;BME280;33105;47.964;7.982;2023-04-07T06:14:45;96464.47;;;6.42;69.95
47366;BME280;33105;47.964;7.982;2023-04-07T06:17:47;96457.53;;;6.34;70.42
47366;BME280;33105;47.964;7.982;2023-04-07T06:20:48;96458.94;;;6.37;70.13
47366;BME280;33105;47.964;7.982;2023-04-07T06:23:49;96460.50;;;6.49;69.81
47366;BME280;33105;47.964;7.982;2023-04-07T06:26:51;96461.78;;;6.59;70.05
47366;BME280;33105;47.964;7.982;2023-04-07T06:29:55;96461.06;;;6.63;69.04
47366;BME280;33105;47.964;7.982;2023-04-07T06:32:57;96460.56;;;6.66;70.10
47366;BME280;33105;47.964;7.982;2023-04-07T06:35:59;96469.59;;;6.72;69.67
47366;BME280;33105;47.964;7.982;2023-04-07T06:39:01;96470.38;;;7.01;69.29
47366;BME280;33105;47.964;7.982;2023-04-07T06:42:03;96469.97;;;6.92;70.27
47366;BME280;33105;47.964;7.982;2023-04-07T06:45:10;96464.19;;;7.22;68.39
47366;BME280;33105;47.964;7.982;2023-04-07T06:48:12;96456.53;;;7.19;69.42
47366;BME280;33105;47.964;7.982;2023-04-07T06:51:13;96466.16;;;7.43;67.39
47366;BME280;33105;47.964;7.982;2023-04-07T06:54:15;96472.97;;;7.63;67.28
47366;BME280;33105;47.964;7.982;2023-04-07T06:57:18;96475.72;;;7.29;67.92
47366;BME280;33105;47.964;7.982;2023-04-07T07:00:19;96484.50;;;7.53;66.99
47366;BME280;33105;47.964;7.982;2023-04-07T07:03:22;96487.53;;;7.73;67.26
47366;BME280;33105;47.964;7.982;2023-04-07T07:06:24;96489.63;;;7.49;69.20
47366;BME280;33105;47.964;7.982;2023-04-07T07:09:27;96487.34;;;7.25;69.95
47366;BME280;33105;47.964;7.982;2023-04-07T07:12:29;96492.53;;;7.26;70.56
47366;BME280;33105;47.964;7.982;2023-04-07T07:15:31;96486.31;;;7.47;70.88
47366;BME280;33105;47.964;7.982;2023-04-07T07:18:32;96490.81;;;7.75;69.67
47366;BME280;33105;47.964;7.982;2023-04-07T07:21:35;96498.25;;;8.02;66.19
47366;BME280;33105;47.964;7.982;2023-04-07T07:24:37;96499.22;;;7.74;68.62
47366;BME280;33105;47.964;7.982;2023-04-07T07:27:39;96495.84;;;8.27;66.63
47366;BME280;33105;47.964;7.982;2023-04-07T07:30:41;96498.25;;;8.24;65.78
47366;BME280;33105;47.964;7.982;2023-04-07T07:33:43;96498.16;;;8.13;66.17
47366;BME280;33105;47.964;7.982;2023-04-07T07:36:46;96502.47;;;7.93;67.14
47366;BME280;33105;47.964;7.982;2023-04-07T07:39:48;96497.44;;;8.23;67.98
47366;BME280;33105;47.964;7.982;2023-04-07T07:42:49;96504.34;;;8.31;68.20
47366;BME280;33105;47.964;7.982;2023-04-07T07:45:51;96509.59;;;8.15;65.46
47366;BME280;33105;47.964;7.982;2023-04-07T07:48:52;96507.31;;;8.29;66.74
47366;BME280;33105;47.964;7.982;2023-04-07T07:51:53;96506.97;;;8.69;63.22
47366;BME280;33105;47.964;7.982;2023-04-07T07:54:55;96509.88;;;8.36;65.55
47366;BME280;33105;47.964;7.982;2023-04-07T07:57:56;96518.13;;;8.02;67.27
47366;BME280;33105;47.964;7.982;2023-04-07T08:00:57;96516.94;;;8.15;67.33
47366;BME280;33105;47.964;7.982;2023-04-07T08:03:59;96519.63;;;7.93;67.10
47366;BME280;33105;47.964;7.982;2023-04-07T08:07:02;96527.03;;;7.26;68.85
47366;BME280;33105;47.964;7.982;2023-04-07T08:10:04;96530.31;;;7.61;69.53
47366;BME280;33105;47.964;7.982;2023-04-07T08:13:05;96536.78;;;7.77;68.31
47366;BME280;33105;47.964;7.982;2023-04-07T08:16:07;96540.84;;;7.58;69.16
47366;BME280;33105;47.964;7.982;2023-04-07T08:19:13;96542.09;;;7.33;69.23
47366;BME280;33105;47.964;7.982;2023-04-07T08:22:14;96540.59;;;7.76;69.30
47366;BME280;33105;47.964;7.982;2023-04-07T08:25:17;96545.28;;;7.80;69.02
47366;BME280;33105;47.964;7.982;2023-04-07T08:28:18;96541.66;;;7.92;68.61
47366;BME280;33105;47.964;7.982;2023-04-07T08:31:19;96552.25;;;8.10;67.76
47366;BME280;33105;47.964;7.982;2023-04-07T08:34:21;96550.97;;;7.79;69.43
47366;BME280;33105;47.964;7.982;2023-04-07T08:37:24;96558.25;;;7.57;69.66
47366;BME280;33105;47.964;7.982;2023-04-07T08:40:25;96560.41;;;7.93;70.70
47366;BME280;33105;47.964;7.982;2023-04-07T08:43:27;96567.44;;;7.72;70.24
47366;BME280;33105;47.964;7.982;2023-04-07T08:46:29;96571.25;;;7.88;70.51
47366;BME280;33105;47.964;7.982;2023-04-07T08:49:32;96570.34;;;7.82;70.75
47366;BME280;33105;47.964;7.982;2023-04-07T08:55:37;96578.00;;;7.69;71.97
47366;BME280;33105;47.964;7.982;2023-04-07T08:58:39;96577.84;;;7.59;72.73
47366;BME280;33105;47.964;7.982;2023-04-07T09:01:41;96582.44;;;7.75;73.09
47366;BME280;33105;47.964;7.982;2023-04-07T09:04:43;96586.91;;;7.64;73.83
47366;BME280;33105;47.964;7.982;2023-04-07T09:07:45;96585.44;;;7.57;74.39
47366;BME280;33105;47.964;7.982;2023-04-07T09:10:47;96581.28;;;7.71;73.93
47366;BME280;33105;47.964;7.982;2023-04-07T09:13:49;96590.72;;;7.63;74.56
47366;BME280;33105;47.964;7.982;2023-04-07T09:16:53;96596.31;;;7.90;74.90
47366;BME280;33105;47.964;7.982;2023-04-07T09:19:57;96587.16;;;7.63;74.78
47366;BME280;33105;47.964;7.982;2023-04-07T09:22:58;96592.03;;;7.61;75.89
47366;BME280;33105;47.964;7.982;2023-04-07T09:26:18;96594.41;;;7.74;76.72
47366;BME280;33105;47.964;7.982;2023-04-07T09:29:21;96589.56;;;7.59;77.65
47366;BME280;33105;47.964;7.982;2023-04-07T09:32:36;96602.03;;;7.94;77.63
47366;BME280;33105;47.964;7.982;2023-04-07T09:35:51;96599.03;;;7.90;77.66
47366;BME280;33105;47.964;7.982;2023-04-07T09:39:07;96594.81;;;8.21;78.21
47366;BME280;33105;47.964;7.982;2023-04-07T09:42:08;96601.75;;;7.90;78.40
47366;BME280;33105;47.964;7.982;2023-04-07T09:45:10;96602.50;;;8.41;78.55
47366;BME280;33105;47.964;7.982;2023-04-07T09:48:19;96593.50;;;8.84;76.57
47366;BME280;33105;47.964;7.982;2023-04-07T09:51:21;96603.88;;;8.43;75.92
47366;BME280;33105;47.964;7.982;2023-04-07T09:54:32;96596.22;;;8.24;78.14
47366;BME280;33105;47.964;7.982;2023-04-07T09:57:36;96602.44;;;8.58;75.73
47366;BME280;33105;47.964;7.982;2023-04-07T10:00:40;96603.75;;;8.55;76.39
47366;BME280;33105;47.964;7.982;2023-04-07T10:03:43;96608.06;;;8.51;77.04
47366;BME280;33105;47.964;7.982;2023-04-07T10:06:47;96602.03;;;8.49;76.61
47366;BME280;33105;47.964;7.982;2023-04-07T10:09:48;96606.47;;;8.33;75.80
47366;BME280;33105;47.964;7.982;2023-04-07T10:12:50;96600.78;;;8.35;78.28
47366;BME280;33105;47.964;7.982;2023-04-07T10:15:55;96603.63;;;8.45;77.38
47366;BME280;33105;47.964;7.982;2023-04-07T10:18:57;96608.19;;;8.39;76.94
47366;BME280;33105;47.964;7.982;2023-04-07T10:22:00;96608.47;;;8.04;77.29
47366;BME280;33105;47.964;7.982;2023-04-07T10:25:06;96606.41;;;7.95;78.37
47366;BME280;33105;47.964;7.982;2023-04-07T10:28:11;96604.81;;;8.32;78.23
47366;BME280;33105;47.964;7.982;2023-04-07T10:31:14;96605.94;;;8.19;77.35
47366;BME280;33105;47.964;7.982;2023-04-07T10:34:17;96603.69;;;7.95;78.30
47366;BME280;33105;47.964;7.982;2023-04-07T10:37:39;96615.63;;;8.10;78.86
47366;BME280;33105;47.964;7.982;2023-04-07T10:40:41;96610.78;;;7.79;80.06
47366;BME280;33105;47.964;7.982;2023-04-07T10:43:43;96608.88;;;8.13;78.00
47366;BME280;33105;47.964;7.982;2023-04-07T10:50:17;96627.91;;;8.13;76.27
47366;BME280;33105;47.964;7.982;2023-04-07T10:53:19;96625.19;;;8.13;75.96
47366;BME280;33105;47.964;7.982;2023-04-07T10:56:20;96625.41;;;8.45;74.93
47366;BME280;33105;47.964;7.982;2023-04-07T10:59:22;96628.50;;;8.15;75.26
47366;BME280;33105;47.964;7.982;2023-04-07T11:05:29;96629.75;;;8.07;75.54
47366;BME280;33105;47.964;7.982;2023-04-07T11:08:32;96639.56;;;7.92;75.22
47366;BME280;33105;47.964;7.982;2023-04-07T11:11:35;96639.38;;;7.48;76.94
47366;BME280;33105;47.964;7.982;2023-04-07T11:14:40;96628.47;;;7.31;77.72
47366;BME280;33105;47.964;7.982;2023-04-07T11:17:43;96638.00;;;7.17;79.41
47366;BME280;33105;47.964;7.982;2023-04-07T11:20:52;96635.56;;;7.49;79.90
47366;BME280;33105;47.964;7.982;2023-04-07T11:23:54;96635.91;;;7.53;78.62
47366;BME280;33105;47.964;7.982;2023-04-07T11:26:55;96638.88;;;7.51;78.27
47366;BME280;33105;47.964;7.982;2023-04-07T11:29:57;96638.00;;;7.62;79.66
47366;BME280;33105;47.964;7.982;2023-04-07T11:32:59;96636.69;;;7.65;80.21
47366;BME280;33105;47.964;7.982;2023-04-07T11:36:01;96649.91;;;7.44;79.86
47366;BME280;33105;47.964;7.982;2023-04-07T11:39:03;96650.09;;;7.09;81.76
47366;BME280;33105;47.964;7.982;2023-04-07T11:42:04;96648.19;;;7.38;82.80
47366;BME280;33105;47.964;7.982;2023-04-07T11:45:15;96648.19;;;7.38;81.33
47366;BME280;33105;47.964;7.982;2023-04-07T11:48:31;96652.16;;;7.19;81.93
47366;BME280;33105;47.964;7.982;2023-04-07T11:51:32;96650.34;;;7.25;81.51
47366;BME280;33105;47.964;7.982;2023-04-07T11:57:42;96659.00;;;7.22;81.75
47366;BME280;33105;47.964;7.982;2023-04-07T12:00:57;96663.19;;;7.12;81.92
47366;BME280;33105;47.964;7.982;2023-04-07T12:04:00;96656.34;;;7.10;83.19
47366;BME280;33105;47.964;7.982;2023-04-07T12:07:09;96661.44;;;7.06;81.62
47366;BME280;33105;47.964;7.982;2023-04-07T12:10:22;96665.78;;;7.36;81.56
47366;BME280;33105;47.964;7.982;2023-04-07T12:13:25;96662.94;;;7.14;81.76
47366;BME280;33105;47.964;7.982;2023-04-07T12:16:27;96668.75;;;7.06;82.54
47366;BME280;33105;47.964;7.982;2023-04-07T12:19:30;96672.50;;;6.76;83.46
47366;BME280;33105;47.964;7.982;2023-04-07T12:22:33;96667.63;;;6.90;83.47
47366;BME280;33105;47.964;7.982;2023-04-07T12:25:34;96668.06;;;7.27;83.23
47366;BME280;33105;47.964;7.982;2023-04-07T12:28:35;96669.69;;;7.57;82.85
47366;BME280;33105;47.964;7.982;2023-04-07T12:31:37;96677.19;;;7.49;81.57
47366;BME280;33105;47.964;7.982;2023-04-07T12:34:39;96676.00;;;7.45;82.32
47366;BME280;33105;47.964;7.982;2023-04-07T12:37:40;96673.25;;;7.74;81.60
47366;BME280;33105;47.964;7.982;2023-04-07T12:40:42;96674.78;;;7.53;80.83
47366;BME280;33105;47.964;7.982;2023-04-07T12:43:43;96675.69;;;7.42;81.32
47366;BME280;33105;47.964;7.982;2023-04-07T12:46:45;96677.06;;;7.44;80.79
47366;BME280;33105;47.964;7.982;2023-04-07T12:49:46;96676.59;;;7.19;81.26
47366;BME280;33105;47.964;7.982;2023-04-07T12:52:48;96670.03;;;7.15;81.47
47366;BME280;33105;47.964;7.982;2023-04-07T12:55:49;96676.34;;;7.49;82.54
47366;BME280;33105;47.964;7.982;2023-04-07T12:58:51;96679.03;;;7.61;82.84
47366;BME280;33105;47.964;7.982;2023-04-07T13:01:53;96676.81;;;7.29;82.32
47366;BME280;33105;47.964;7.982;2023-04-07T13:04:55;96677.19;;;7.49;83.16
47366;BME280;33105;47.964;7.982;2023-04-07T13:07:56;96679.97;;;7.38;82.04
47366;BME280;33105;47.964;7.982;2023-04-07T13:10:57;96672.34;;;7.23;82.79
47366;BME280;33105;47.964;7.982;2023-04-07T13:13:59;96681.03;;;7.37;83.31
47366;BME280;33105;47.964;7.982;2023-04-07T13:17:01;96671.41;;;7.46;82.83
47366;BME280;33105;47.964;7.982;2023-04-07T13:20:03;96678.66;;;7.40;83.51
47366;BME280;33105;47.964;7.982;2023-04-07T13:23:04;96686.16;;;7.22;83.40
47366;BME280;33105;47.964;7.982;2023-04-07T13:26:06;96679.13;;;7.37;83.06
47366;BME280;33105;47.964;7.982;2023-04-07T13:29:08;96678.53;;;7.64;83.58
47366;BME280;33105;47.964;7.982;2023-04-07T13:32:10;96675.22;;;7.62;82.34
47366;BME280;33105;47.964;7.982;2023-04-07T13:35:15;96686.75;;;7.69;82.62
47366;BME280;33105;47.964;7.982;2023-04-07T13:38:17;96667.47;;;7.54;82.82
47366;BME280;33105;47.964;7.982;2023-04-07T13:41:19;96674.31;;;7.56;83.36
47366;BME280;33105;47.964;7.982;2023-04-07T13:44:22;96667.72;;;7.52;82.79
47366;BME280;33105;47.964;7.982;2023-04-07T13:47:23;96664.69;;;7.82;83.24
47366;BME280;33105;47.964;7.982;2023-04-07T13:50:25;96668.63;;;7.58;83.23
47366;BME280;33105;47.964;7.982;2023-04-07T13:53:27;96670.03;;;7.60;84.65
47366;BME280;33105;47.964;7.982;2023-04-07T13:56:28;96665.50;;;7.99;82.46
47366;BME280;33105;47.964;7.982;2023-04-07T13:59:30;96661.63;;;7.78;81.50
47366;BME280;33105;47.964;7.982;2023-04-07T14:02:32;96666.06;;;8.18;82.44
47366;BME280;33105;47.964;7.982;2023-04-07T14:05:34;96668.78;;;7.68;82.19
47366;BME280;33105;47.964;7.982;2023-04-07T14:08:35;96662.81;;;8.16;82.69
47366;BME280;33105;47.964;7.982;2023-04-07T14:11:43;96662.31;;;8.36;82.77
47366;BME280;33105;47.964;7.982;2023-04-07T14:14:44;96661.28;;;8.42;79.01
47366;BME280;33105;47.964;7.982;2023-04-07T14:17:45;96656.16;;;8.45;79.81
47366;BME280;33105;47.964;7.982;2023-04-07T14:20:47;96662.59;;;8.78;78.61
47366;BME280;33105;47.964;7.982;2023-04-07T14:23:48;96664.94;;;8.69;77.89
47366;BME280;33105;47.964;7.982;2023-04-07T14:26:50;96657.22;;;8.61;78.02
47366;BME280;33105;47.964;7.982;2023-04-07T14:29:54;96657.28;;;8.11;77.92
47366;BME280;33105;47.964;7.982;2023-04-07T14:32:57;96665.81;;;8.19;78.18
47366;BME280;33105;47.964;7.982;2023-04-07T14:35:59;96658.56;;;8.25;79.46
47366;BME280;33105;47.964;7.982;2023-04-07T14:39:00;96656.84;;;8.74;77.12
47366;BME280;33105;47.964;7.982;2023-04-07T14:42:02;96654.47;;;8.39;76.63
47366;BME280;33105;47.964;7.982;2023-04-07T14:45:05;96662.06;;;8.37;76.08
47366;BME280;33105;47.964;7.982;2023-04-07T14:48:06;96651.16;;;8.20;77.14
47366;BME280;33105;47.964;7.982;2023-04-07T14:51:12;96650.66;;;8.24;76.84
47366;BME280;33105;47.964;7.982;2023-04-07T14:54:13;96645.22;;;8.24;77.16
47366;BME280;33105;47.964;7.982;2023-04-07T14:57:15;96651.59;;;8.12;76.78
47366;BME280;33105;47.964;7.982;2023-04-07T15:00:17;96653.91;;;7.87;76.95
47366;BME280;33105;47.964;7.982;2023-04-07T15:03:18;96647.81;;;7.80;78.45
47366;BME280;33105;47.964;7.982;2023-04-07T15:06:20;96657.38;;;7.82;78.64
47366;BME280;33105;47.964;7.982;2023-04-07T15:09:23;96652.34;;;7.91;78.92
47366;BME280;33105;47.964;7.982;2023-04-07T15:12:26;96652.66;;;8.11;77.45
47366;BME280;33105;47.964;7.982;2023-04-07T15:15:30;96651.75;;;8.06;78.70
47366;BME280;33105;47.964;7.982;2023-04-07T15:18:31;96658.25;;;8.05;77.97
47366;BME280;33105;47.964;7.982;2023-04-07T15:21:32;96666.19;;;7.90;nan
47366;BME280;33105;47.964;7.982;2023-04-07T15:24:33;96662.28;;;7.69;78.34
47366;BME280;33105;47.964;7.982;2023-04-07T15:27:35;96669.94;;;7.72;78.69
47366;BME280;33105;47.964;7.982;2023-04-07T15:30:36;96670.28;;;7.59;79.31
47366;BME280;33105;47.964;7.982;2023-04-07T15:33:38;96672.75;;;7.77;78.78
47366;BME280;33105;47.964;7.982;2023-04-07T15:36:40;96674.06;;;7.74;78.60
47366;BME280;33105;47.964;7.982;2023-04-07T15:39:41;96674.16;;;7.79;78.36
47366;BME280;33105;47.964;7.982;2023-04-07T15:42:42;96679.44;;;8.03;78.18
47366;BME280;33105;47.964;7.982;2023-04-07T15:45:44;96678.38;;;7.87;77.86
47366;BME280;33105;47.964;7.982;2023-04-07T15:48:46;96686.59;;;7.92;78.28
47366;BME280;33105;47.964;7.982;2023-04-07T15:51:48;96677.56;;;8.03;77.50
47366;BME280;33105;47.964;7.982;2023-04-07T15:54:49;96683.63;;;7.77;77.35
47366;BME280;33105;47.964;7.982;2023-04-07T15:57:50;96686.41;;;7.48;78.69
47366;BME280;33105;47.964;7.982;2023-04-07T16:00:53;96684.09;;;7.40;79.32
47366;BME280;33105;47.964;7.982;2023-04-07T16:03:55;96686.84;;;7.74;78.92
47366;BME280;33105;47.964;7.982;2023-04-07T16:06:57;96695.97;;;7.68;78.28
47366;BME280;33105;47.964;7.982;2023-04-07T16:09:58;96688.44;;;8.03;77.71
47366;BME280;33105;47.964;7.982;2023-04-07T16:12:59;96695.94;;;7.96;78.26
47366;BME280;33105;47.964;7.982;2023-04-07T16:16:01;96697.19;;;7.89;78.17
47366;BME280;33105;47.964;7.982;2023-04-07T16:19:02;96704.97;;;7.68;79.29
47366;BME280;33105;47.964;7.982;2023-04-07T16:22:03;96709.28;;;7.98;78.68
47366;BME280;33105;47.964;7.982;2023-04-07T16:25:06;96708.34;;;7.75;77.80
47366;BME280;33105;47.964;7.982;2023-04-07T16:28:07;96714.28;;;7.72;78.80
47366;BME280;33105;47.964;7.982;2023-04-07T16:31:09;96723.34;;;7.61;79.38
47366;BME280;33105;47.964;7.982;2023-04-07T16:34:11;96722.09;;;7.69;79.14
47366;BME280;33105;47.964;7.982;2023-04-07T16:37:13;96728.94;;;7.71;79.23